Time;durP1;ratioP1;P1;durP2;ratioP2;P2;SDS_P1;SDS_P2;PMS_P1;PMS_P2;Temp;Humidity;BMP_temperature;BMP_pressure;BME280_temperature;BME280_humidity;BME280_pressure;Samples;Min_cycle;Max_cycle;Signal;HPM_P1;HPM_P2
2021/12/01 00:00:50;;;;;;;0.60;0.60;;;6.90;99.90;;;6.95;91.11;100040.22;5048169;28;20643;-64
2021/12/01 00:03:17;;;;;;;1.20;0.50;;;6.80;99.90;;;6.92;92.72;100030.09;5032348;28;20619;-66
2021/12/01 00:05:46;;;;;;;0.40;0.40;;;6.70;99.90;;;6.90;92.05;100040.53;5049271;28;20205;-65
2021/12/01 00:08:13;;;;;;;0.50;0.50;;;6.70;99.90;;;6.88;92.37;100028.59;5049134;28;20225;-64
2021/12/01 00:10:42;;;;;;;8.33;0.67;;;6.70;99.90;;;6.70;93.47;100035.00;5048619;28;20279;-64
2021/12/01 00:13:13;;;;;;;0.40;0.40;;;6.50;99.90;;;6.67;93.14;100028.25;5049176;28;21273;-65
2021/12/01 00:15:43;;;;;;;0.37;0.37;;;6.40;99.90;;;6.57;94.37;100019.41;5048914;28;21219;-65
2021/12/01 00:18:11;;;;;;;0.70;0.70;;;6.40;99.90;;;6.60;93.17;100011.44;5049641;28;20679;-63
2021/12/01 00:20:38;;;;;;;0.50;0.50;;;6.40;99.90;;;6.59;94.10;100001.16;5048722;28;20208;-66
2021/12/01 00:23:05;;;;;;;0.70;0.70;;;6.40;99.90;;;6.52;94.29;99998.16;5050809;28;20196;-64
2021/12/01 00:25:35;;;;;;;0.60;0.60;;;6.40;99.90;;;6.55;93.91;99997.13;5050448;28;21011;-64
2021/12/01 00:28:02;;;;;;;0.50;0.50;;;6.40;99.90;;;6.61;94.16;99979.41;5051115;28;20221;-63
2021/12/01 00:30:29;;;;;;;0.40;0.40;;;6.50;99.90;;;6.61;93.25;99992.38;5049867;28;20292;-66
2021/12/01 00:32:56;;;;;;;0.80;0.80;;;6.50;99.90;;;6.57;94.03;99982.31;5050467;28;20228;-65
2021/12/01 00:35:24;;;;;;;0.47;0.47;;;6.50;99.90;;;6.65;93.01;99991.22;5041339;28;21197;-64
2021/12/01 00:37:51;;;;;;;0.50;0.50;;;6.50;99.90;;;6.62;93.40;99982.84;5048591;28;20218;-64
2021/12/01 00:40:18;;;;;;;0.40;0.40;;;6.50;99.90;;;6.67;93.21;99965.19;5048730;28;20303;-65
2021/12/01 00:42:45;;;;;;;0.65;0.50;;;6.50;99.90;;;6.73;93.47;99980.38;5049279;28;20201;-64
2021/12/01 00:45:18;;;;;;;0.60;0.60;;;6.60;99.90;;;6.70;92.71;99977.97;5049561;28;20199;-64
2021/12/01 00:47:50;;;;;;;0.50;0.50;;;6.50;99.90;;;6.74;92.64;99997.56;5049916;28;20237;-64
2021/12/01 00:50:26;;;;;;;0.80;0.80;;;6.60;99.90;;;6.72;92.44;99991.66;5049260;28;20205;-64
2021/12/01 00:52:56;;;;;;;0.40;0.40;;;6.60;99.90;;;6.70;93.12;99988.34;5033138;28;20688;-64
2021/12/01 00:55:23;;;;;;;0.67;0.67;;;6.60;99.90;;;6.75;92.46;99984.50;5028528;28;20651;-64
2021/12/01 00:57:51;;;;;;;0.60;0.60;;;6.60;99.90;;;6.72;91.65;99973.50;5029228;28;20638;-65
2021/12/01 01:00:23;;;;;;;0.30;0.30;;;6.60;99.90;;;6.73;91.96;99983.78;5043126;28;21125;-64
2021/12/01 01:02:51;;;;;;;0.30;0.30;;;6.60;99.90;;;6.74;91.88;99975.06;5047701;28;20730;-62
2021/12/01 01:05:18;;;;;;;0.30;0.30;;;6.60;99.90;;;6.64;92.78;99962.81;5038805;28;20259;-63
2021/12/01 01:07:46;;;;;;;0.88;0.43;;;6.50;99.90;;;6.57;93.17;99964.16;5029909;28;20640;-62
2021/12/01 01:10:29;;;;;;;0.88;0.60;;;6.40;99.90;;;6.49;93.79;99961.25;5030883;28;20583;-64
2021/12/01 01:18:42;;;;;;;0.60;0.40;;;6.40;99.90;;;6.49;93.28;99950.88;5050335;28;20249;-64
2021/12/01 01:21:10;;;;;;;0.40;0.40;;;6.40;99.90;;;6.52;93.75;99948.06;5044498;28;20689;-63
2021/12/01 01:23:38;;;;;;;0.47;0.47;;;6.30;99.90;;;6.48;93.22;99949.19;5045083;28;20288;-61
2021/12/01 01:26:10;;;;;;;0.30;0.30;;;6.30;99.90;;;6.46;93.49;99951.06;5029281;28;20499;-63
2021/12/01 01:28:37;;;;;;;0.40;0.40;;;6.40;99.90;;;6.55;93.52;99953.06;5045160;28;20714;-63
2021/12/01 01:31:05;;;;;;;0.68;0.68;;;6.40;99.90;;;6.52;93.77;99946.31;5047966;28;20320;-63
2021/12/01 01:33:32;;;;;;;0.65;0.50;;;6.40;99.90;;;6.45;93.92;99952.84;5053800;28;20193;-63
2021/12/01 01:35:59;;;;;;;0.40;0.40;;;6.30;99.90;;;6.42;94.03;99944.44;5043956;28;20194;-63
2021/12/01 01:38:29;;;;;;;0.60;0.60;;;6.30;99.90;;;6.37;94.31;99939.53;5052751;28;20564;-63
2021/12/01 01:40:56;;;;;;;0.52;0.50;;;6.30;99.90;;;6.44;93.33;99942.56;5053128;28;20205;-63
2021/12/01 01:43:23;;;;;;;0.50;0.50;;;6.30;99.90;;;6.44;93.36;99945.16;5054211;28;20227;-62
2021/12/01 01:45:55;;;;;;;0.35;0.35;;;6.30;99.90;;;6.40;93.80;99938.53;5052096;28;20579;-63
2021/12/01 01:48:34;;;;;;;0.50;0.47;;;6.30;99.90;;;6.47;94.51;99930.25;5052435;28;20320;-63
2021/12/01 01:51:05;;;;;;;0.57;0.57;;;6.30;99.90;;;6.36;93.77;99924.94;5051284;28;20705;-64
2021/12/01 01:53:34;;;;;;;0.82;0.60;;;6.30;99.90;;;6.28;95.28;99922.84;5053826;28;20293;-64
2021/12/01 01:56:05;;;;;;;0.50;0.50;;;6.20;99.90;;;6.34;94.93;99920.78;5051233;28;20204;-63
2021/12/01 01:58:32;;;;;;;0.60;0.60;;;6.20;99.90;;;6.36;94.91;99926.69;5053034;28;20655;-63
2021/12/01 02:01:15;;;;;;;0.77;0.77;;;6.20;99.90;;;6.34;94.30;99913.00;5050607;28;20205;-64
2021/12/01 02:03:47;;;;;;;0.68;0.45;;;6.20;99.90;;;6.27;95.25;99910.00;5052553;28;20201;-63
2021/12/01 02:06:22;;;;;;;0.50;0.50;;;6.20;99.90;;;6.33;95.17;99901.81;5041850;28;20199;-63
2021/12/01 02:08:54;;;;;;;0.57;0.55;;;6.20;99.90;;;6.33;94.37;99904.41;5052835;28;20224;-63
2021/12/01 02:11:22;;;;;;;0.68;0.68;;;6.20;99.90;;;6.32;94.64;99896.75;5048769;28;20670;-63
2021/12/01 02:13:50;;;;;;;0.40;0.40;;;6.20;99.90;;;6.32;94.05;99889.81;5033501;28;20210;-63
2021/12/01 02:16:19;;;;;;;0.90;0.90;;;6.20;99.90;;;6.28;94.76;99884.94;5031416;28;20202;-64
2021/12/01 02:18:47;;;;;;;0.70;0.70;;;6.20;99.90;;;6.18;95.59;99885.53;5030509;28;20228;-64
2021/12/01 02:21:27;;;;;;;0.70;0.60;;;6.20;99.90;;;6.22;95.78;99888.72;5032704;28;20682;-64
2021/12/01 02:24:06;;;;;;;0.30;0.30;;;6.10;99.90;;;6.24;95.49;99882.53;5032108;28;20202;-64
2021/12/01 02:26:39;;;;;;;0.40;0.40;;;6.10;99.90;;;6.17;96.37;99868.34;5048893;28;20233;-63
2021/12/01 02:29:10;;;;;;;0.65;0.57;;;6.10;99.90;;;6.26;95.71;99870.31;5050170;28;20666;-64
2021/12/01 02:31:38;;;;;;;0.60;0.60;;;6.10;99.90;;;6.22;95.67;99860.25;5050375;28;20217;-65
2021/12/01 02:34:14;;;;;;;0.40;0.40;;;6.10;99.90;;;6.24;96.27;99859.22;5050728;28;20205;-63
2021/12/01 02:36:41;;;;;;;0.60;0.60;;;6.10;99.90;;;6.25;95.59;99852.28;5032525;28;20669;-64
2021/12/01 02:39:13;;;;;;;0.32;0.32;;;6.10;99.90;;;6.26;95.39;99856.53;5033373;28;20288;-64
2021/12/01 02:41:40;;;;;;;0.80;0.80;;;6.10;99.90;;;6.24;95.52;99858.38;5043016;28;20284;-63
2021/12/01 02:44:08;;;;;;;0.95;0.68;;;6.10;99.90;;;6.34;94.75;99832.69;5052121;28;20209;-63
2021/12/01 02:46:36;;;;;;;0.55;0.55;;;6.20;99.90;;;6.31;95.32;99833.72;5049568;28;20209;-63
2021/12/01 02:49:05;;;;;;;0.30;0.30;;;6.20;99.90;;;6.26;95.47;99822.88;5051458;28;20689;-63
2021/12/01 02:51:35;;;;;;;0.70;0.70;;;6.20;99.90;;;6.26;95.72;99807.31;5050483;28;20259;-64
2021/12/01 02:54:03;;;;;;;0.60;0.60;;;6.10;99.90;;;6.29;95.61;99812.28;5035588;28;20215;-63
2021/12/01 02:56:32;;;;;;;0.45;0.45;;;6.20;99.90;;;6.30;95.83;99813.94;5050658;28;20288;-64
2021/12/01 02:59:03;;;;;;;1.20;0.95;;;6.10;99.90;;;6.24;95.92;99810.00;5050199;28;20204;-64
2021/12/01 03:01:30;;;;;;;0.52;0.40;;;6.20;99.90;;;6.28;96.01;99802.88;5051319;28;20655;-63
2021/12/01 03:04:00;;;;;;;0.73;0.73;;;6.20;99.90;;;6.20;96.70;99790.41;5051922;28;20209;-63
2021/12/01 03:06:28;;;;;;;0.73;0.73;;;6.10;99.90;;;6.30;96.99;99784.63;5031161;28;20627;-63
2021/12/01 03:08:56;;;;;;;0.70;0.70;;;6.10;99.90;;;6.33;96.59;99780.06;5030686;28;20216;-63
2021/12/01 03:11:25;;;;;;;1.00;1.00;;;6.20;99.90;;;6.24;97.02;99771.13;5032739;28;20293;-63
2021/12/01 03:13:54;;;;;;;0.80;0.80;;;6.20;99.90;;;6.26;97.41;99765.88;5041917;28;20289;-62
2021/12/01 03:16:21;;;;;;;0.82;0.82;;;6.10;99.90;;;6.33;97.28;99769.69;5050341;28;20205;-63
2021/12/01 03:18:48;;;;;;;0.93;0.90;;;6.20;99.90;;;6.35;97.15;99766.97;5051382;28;20312;-63
2021/12/01 03:21:15;;;;;;;2.35;0.93;;;6.20;99.90;;;6.28;97.40;99763.19;5051129;28;20209;-63
2021/12/01 03:23:43;;;;;;;1.10;0.82;;;6.10;99.90;;;6.22;98.67;99761.81;5052349;28;20268;-63
2021/12/01 03:26:11;;;;;;;0.80;0.80;;;6.10;99.90;;;6.19;98.31;99762.88;5051316;28;20296;-63
2021/12/01 03:28:39;;;;;;;1.45;0.70;;;6.10;99.90;;;6.15;97.84;99748.44;5050858;28;20255;-64
2021/12/01 03:31:06;;;;;;;0.75;0.50;;;6.10;99.90;;;6.16;98.48;99749.28;5051042;28;20271;-64
2021/12/01 03:33:33;;;;;;;1.08;1.08;;;6.00;99.90;;;6.21;98.84;99744.63;5051640;28;20225;-64
2021/12/01 03:36:00;;;;;;;0.63;0.63;;;6.10;99.90;;;6.22;97.88;99739.34;5051082;28;20227;-63
2021/12/01 03:38:28;;;;;;;0.80;0.80;;;6.10;99.90;;;6.26;97.71;99730.41;5066407;28;20217;-64
2021/12/01 03:40:58;;;;;;;0.60;0.60;;;6.10;99.90;;;6.30;97.20;99720.69;5049836;28;20251;-64
2021/12/01 03:43:26;;;;;;;0.68;0.68;;;6.20;99.90;;;6.33;96.59;99717.88;5049882;28;20274;-63
2021/12/01 03:45:54;;;;;;;1.35;1.25;;;6.20;99.90;;;6.30;96.76;99712.94;5050330;28;20288;-63
2021/12/01 03:48:22;;;;;;;0.60;0.60;;;6.20;99.90;;;6.38;96.33;99715.81;5050851;28;20237;-64
2021/12/01 03:50:51;;;;;;;0.85;0.85;;;6.20;99.90;;;6.37;96.04;99708.94;5049396;28;20692;-63
2021/12/01 03:53:20;;;;;;;0.57;0.57;;;6.30;99.90;;;6.42;95.52;99701.69;5050447;28;20610;-64
2021/12/01 03:55:48;;;;;;;1.38;1.27;;;6.30;99.90;;;6.43;95.47;99692.19;5027959;28;20204;-63
2021/12/01 03:58:15;;;;;;;1.05;1.00;;;6.30;99.90;;;6.39;95.21;99695.91;5013494;28;20625;-64
2021/12/01 04:00:42;;;;;;;0.98;0.80;;;6.30;99.90;;;6.44;94.63;99688.63;5046867;28;20202;-64
2021/12/01 04:03:10;;;;;;;0.90;0.90;;;6.30;99.90;;;6.42;94.57;99680.13;5047289;28;20575;-63
2021/12/01 04:05:37;;;;;;;0.70;0.70;;;6.30;99.90;;;6.40;94.58;99676.81;5041236;28;20685;-63
2021/12/01 04:08:07;;;;;;;0.80;0.80;;;6.30;99.90;;;6.47;94.08;99667.69;5050264;28;20268;-64
2021/12/01 04:10:34;;;;;;;1.40;1.30;;;6.30;99.90;;;6.37;94.87;99667.50;5030492;28;20197;-65
2021/12/01 04:13:02;;;;;;;1.13;1.13;;;6.30;99.90;;;6.40;94.24;99651.75;5029232;28;20312;-64
2021/12/01 04:15:30;;;;;;;1.00;0.93;;;6.20;99.90;;;6.30;94.48;99644.75;5037297;28;20624;-63
2021/12/01 04:17:57;;;;;;;1.75;1.27;;;6.20;99.90;;;6.35;94.60;99633.09;5047050;28;20593;-64
2021/12/01 04:20:24;;;;;;;1.35;0.88;;;6.20;99.90;;;6.33;94.23;99637.56;5047046;28;20689;-63
2021/12/01 04:22:52;;;;;;;0.40;0.40;;;6.20;99.90;;;6.39;94.62;99633.72;5048155;28;20212;-64
2021/12/01 04:25:19;;;;;;;0.67;0.67;;;6.20;99.90;;;6.32;94.87;99622.97;5050191;28;20292;-62
2021/12/01 04:27:46;;;;;;;0.73;0.73;;;6.10;99.90;;;6.35;95.29;99617.56;5048103;28;20660;-64
2021/12/01 04:30:19;;;;;;;0.60;0.60;;;6.20;99.90;;;6.34;94.37;99617.69;5033202;28;20293;-64
2021/12/01 04:32:46;;;;;;;1.08;1.08;;;6.20;99.90;;;6.27;95.62;99612.09;5049346;28;20304;-63
2021/12/01 04:35:15;;;;;;;1.35;0.98;;;6.20;99.90;;;6.31;95.52;99602.34;5049684;28;20649;-63
2021/12/01 04:37:43;;;;;;;0.85;0.85;;;6.20;99.90;;;6.38;94.55;99593.22;5023140;28;20228;-63
2021/12/01 04:40:11;;;;;;;4.72;1.20;;;6.20;99.90;;;6.31;95.64;99584.19;5011868;28;20205;-63
2021/12/01 04:42:38;;;;;;;0.70;0.70;;;6.20;99.90;;;6.35;94.64;99573.53;5035374;28;20203;-63
2021/12/01 04:45:14;;;;;;;0.52;0.52;;;6.20;99.90;;;6.34;94.73;99558.94;5042893;28;20237;-64
2021/12/01 04:47:50;;;;;;;0.60;0.60;;;6.20;99.90;;;6.28;95.30;99554.19;5048632;28;20267;-64
2021/12/01 04:50:21;;;;;;;1.83;1.05;;;6.20;99.90;;;6.42;95.31;99560.97;5064757;28;20280;-64
2021/12/01 04:52:49;;;;;;;0.70;0.70;;;6.20;99.90;;;6.36;95.34;99545.84;5043929;28;20312;-63
2021/12/01 04:55:16;;;;;;;0.50;0.50;;;6.20;99.90;;;6.29;95.86;99529.94;5048110;28;20198;-64
2021/12/01 04:57:46;;;;;;;1.38;1.05;;;6.20;99.90;;;6.26;96.03;99528.38;5048347;28;20240;-63
2021/12/01 05:00:19;;;;;;;1.33;1.00;;;6.10;99.90;;;6.36;95.90;99528.56;5031664;28;20205;-64
2021/12/01 05:02:46;;;;;;;0.50;0.50;;;6.20;99.90;;;6.35;95.83;99526.88;5030066;28;21089;-65
2021/12/01 05:05:14;;;;;;;1.85;0.90;;;6.20;99.90;;;6.33;95.80;99527.94;5037206;28;20212;-64
2021/12/01 05:07:41;;;;;;;0.68;0.68;;;6.20;99.90;;;6.31;95.54;99535.81;5051248;28;20235;-64
2021/12/01 05:10:08;;;;;;;1.50;0.73;;;6.20;99.90;;;6.37;95.42;99532.78;5054033;28;20212;-64
2021/12/01 05:12:37;;;;;;;0.60;0.60;;;6.20;99.90;;;6.43;94.67;99521.97;5054615;28;20633;-64
2021/12/01 05:15:06;;;;;;;0.52;0.52;;;6.30;99.90;;;6.43;94.38;99528.94;5052610;28;20280;-64
2021/12/01 05:17:33;;;;;;;0.40;0.40;;;6.30;99.90;;;6.48;94.05;99537.19;5053244;28;20214;-63
2021/12/01 05:20:00;;;;;;;1.25;0.80;;;6.30;99.90;;;6.49;93.36;99510.34;5052060;28;20206;-64
2021/12/01 05:22:27;;;;;;;0.70;0.70;;;6.30;99.90;;;6.59;92.75;99495.78;5052050;28;20216;-64
2021/12/01 05:24:54;;;;;;;0.90;0.90;;;6.40;99.90;;;6.60;93.07;99494.84;5053509;28;20232;-64
2021/12/01 05:27:21;;;;;;;0.30;0.30;;;6.40;99.90;;;6.61;92.40;99505.09;5054149;28;20315;-64
2021/12/01 05:29:49;;;;;;;0.87;0.87;;;6.40;99.90;;;6.62;92.04;99503.34;5046061;28;20248;-64
2021/12/01 05:32:17;;;;;;;0.60;0.60;;;6.40;99.90;;;6.63;92.12;99507.56;5054054;28;20680;-64
2021/12/01 05:34:44;;;;;;;0.70;0.70;;;6.50;99.90;;;6.70;92.08;99503.59;5051424;28;20280;-63
2021/12/01 05:37:11;;;;;;;2.67;1.13;;;6.60;99.90;;;6.84;91.02;99501.63;5050983;28;20734;-64
2021/12/01 05:39:41;;;;;;;2.30;0.80;;;6.70;99.90;;;6.89;90.86;99493.53;5052990;28;20610;-64
2021/12/01 05:42:08;;;;;;;0.90;0.90;;;6.70;99.90;;;7.02;90.04;99487.31;5051424;28;21174;-63
2021/12/01 05:44:36;;;;;;;0.60;0.60;;;6.90;99.90;;;7.09;89.36;99479.91;5034252;28;20281;-63
2021/12/01 05:47:03;;;;;;;0.90;0.90;;;6.90;99.90;;;7.23;87.05;99471.88;5053060;28;20715;-64
2021/12/01 05:49:30;;;;;;;1.53;0.40;;;7.10;99.90;;;7.24;86.91;99467.53;5052899;28;20702;-63
2021/12/01 05:51:58;;;;;;;1.03;1.03;;;7.10;99.90;;;7.36;87.22;99461.38;5047953;28;21225;-64
2021/12/01 05:54:26;;;;;;;0.40;0.40;;;7.10;99.90;;;7.38;85.83;99459.50;5049950;28;20623;-64
2021/12/01 05:56:53;;;;;;;0.77;0.77;;;7.20;99.90;;;7.41;85.63;99449.69;5049739;28;20746;-63
2021/12/01 05:59:20;;;;;;;0.70;0.70;;;7.30;99.90;;;7.38;86.00;99459.50;5051482;28;20714;-64
2021/12/01 06:01:47;;;;;;;0.93;0.80;;;7.20;99.90;;;7.36;87.29;99459.63;5050993;28;21222;-63
2021/12/01 06:04:14;;;;;;;0.57;0.57;;;7.20;99.90;;;7.40;86.17;99455.84;5051811;28;20623;-63
2021/12/01 06:06:41;;;;;;;0.30;0.30;;;7.30;99.90;;;7.38;86.91;99444.75;5032415;28;20623;-63
2021/12/01 06:09:08;;;;;;;0.63;0.63;;;7.20;99.90;;;7.36;87.42;99451.00;5032365;28;20624;-63
2021/12/01 06:11:35;;;;;;;0.80;0.80;;;7.20;99.90;;;7.43;86.52;99452.19;5047281;28;20714;-65
2021/12/01 06:14:02;;;;;;;2.27;0.70;;;7.30;99.90;;;7.33;86.58;99449.47;5032762;28;20656;-63
2021/12/01 06:16:29;;;;;;;3.60;0.60;;;7.20;99.90;;;7.40;86.96;99450.66;5045261;28;20619;-63
2021/12/01 06:18:57;;;;;;;1.00;1.00;;;7.20;99.90;;;7.36;87.18;99454.44;5051249;28;20637;-64
2021/12/01 06:21:24;;;;;;;0.60;0.50;;;7.20;99.90;;;7.37;87.34;99444.88;5052859;28;20622;-62
2021/12/01 06:23:51;;;;;;;0.60;0.60;;;7.20;99.90;;;7.33;87.70;99435.66;5051916;28;20734;-63
2021/12/01 06:26:18;;;;;;;0.73;0.57;;;7.20;99.90;;;7.25;86.98;99428.47;5053013;28;21181;-64
2021/12/01 06:28:45;;;;;;;0.60;0.60;;;7.10;99.90;;;7.30;87.67;99428.13;5052303;28;20762;-64
2021/12/01 06:31:12;;;;;;;0.50;0.50;;;7.10;99.90;;;7.32;86.97;99415.88;5052584;28;20723;-62
2021/12/01 06:33:39;;;;;;;0.63;0.60;;;7.20;99.90;;;7.23;88.07;99408.78;5052492;28;20678;-63
2021/12/01 06:36:06;;;;;;;0.70;0.70;;;7.10;99.90;;;7.26;88.42;99408.56;5045347;28;20635;-63
2021/12/01 06:38:33;;;;;;;2.07;0.90;;;7.10;99.90;;;7.16;89.43;99408.44;5063227;28;20639;-63
2021/12/01 06:41:00;;;;;;;0.67;0.67;;;7.00;99.90;;;7.13;89.41;99393.13;5051188;28;20726;-63
2021/12/01 06:43:27;;;;;;;0.80;0.60;;;7.00;99.90;;;7.01;91.35;99392.28;5050408;28;20639;-64
2021/12/01 06:45:54;;;;;;;0.93;0.50;;;6.90;99.90;;;6.99;92.20;99390.75;5051935;28;20614;-64
2021/12/01 06:48:21;;;;;;;0.83;0.60;;;6.80;99.90;;;6.90;92.29;99375.88;5051784;28;20846;-64
2021/12/01 06:50:49;;;;;;;0.80;0.80;;;6.80;99.90;;;6.77;94.43;99370.00;5046355;28;20736;-63
2021/12/01 06:53:17;;;;;;;0.90;0.90;;;6.70;99.90;;;6.70;94.68;99361.03;5046880;28;20235;-64
2021/12/01 06:55:45;;;;;;;0.70;0.70;;;6.60;99.90;;;6.69;94.93;99361.97;5051003;28;20622;-64
2021/12/01 06:58:13;;;;;;;0.38;0.38;;;6.60;99.90;;;6.73;95.54;99347.88;5050926;28;20217;-64
2021/12/01 07:00:40;;;;;;;0.40;0.40;;;6.60;99.90;;;6.71;96.11;99337.59;5052735;28;20297;-63
2021/12/01 07:03:07;;;;;;;0.40;0.40;;;6.60;99.90;;;6.67;95.51;99312.03;5051183;28;20658;-64
2021/12/01 07:05:35;;;;;;;0.47;0.47;;;6.50;99.90;;;6.57;97.01;99314.50;5051203;28;20642;-63
2021/12/01 07:08:02;;;;;;;0.70;0.70;;;6.50;99.90;;;6.53;97.34;99320.03;5051432;28;20327;-63
2021/12/01 07:10:29;;;;;;;0.63;0.63;;;6.50;99.90;;;6.63;96.03;99308.84;5049218;28;20209;-63
2021/12/01 07:12:57;;;;;;;0.40;0.40;;;6.50;99.90;;;6.57;97.25;99288.59;5052151;28;20772;-65
2021/12/01 07:15:24;;;;;;;0.85;0.85;;;6.50;99.90;;;6.68;96.67;99303.31;5051219;28;20201;-66
2021/12/01 07:17:51;;;;;;;1.45;0.90;;;6.50;99.90;;;6.77;95.39;99298.22;5048699;28;21036;-64
2021/12/01 07:20:18;;;;;;;0.63;0.63;;;6.60;99.90;;;6.69;95.95;99302.34;5066525;28;20205;-65
2021/12/01 07:22:45;;;;;;;0.80;0.80;;;6.60;99.90;;;6.64;95.31;99291.53;5050493;28;20208;-64
2021/12/01 07:25:13;;;;;;;0.32;0.32;;;6.60;99.90;;;6.71;95.42;99296.13;5048958;28;20700;-64
2021/12/01 07:27:41;;;;;;;0.80;0.80;;;6.60;99.90;;;6.66;96.39;99298.25;5051077;28;20232;-64
2021/12/01 07:30:09;;;;;;;0.38;0.38;;;6.60;99.90;;;6.73;96.50;99280.47;5049489;28;20213;-63
2021/12/01 07:32:37;;;;;;;0.80;0.67;;;6.60;99.90;;;6.68;96.99;99280.00;5030555;28;20233;-65
2021/12/01 07:35:05;;;;;;;0.50;0.50;;;6.60;99.90;;;6.64;97.18;99282.00;5031449;28;20616;-63
2021/12/01 07:37:32;;;;;;;0.50;0.50;;;6.50;99.90;;;6.68;97.92;99282.59;5049943;28;20652;-62
2021/12/01 07:39:59;;;;;;;0.40;0.40;;;6.50;99.90;;;6.66;97.88;99261.16;5050165;28;20698;-64
2021/12/01 07:42:26;;;;;;;0.70;0.63;;;6.50;99.90;;;6.65;98.19;99256.88;5048203;28;20203;-63
2021/12/01 07:44:53;;;;;;;0.63;0.63;;;6.50;99.90;;;6.70;98.86;99255.59;5064740;28;21001;-64
2021/12/01 07:47:20;;;;;;;0.30;0.30;;;6.60;99.90;;;6.69;98.88;99260.88;5047819;28;20312;-63
2021/12/01 07:49:47;;;;;;;0.40;0.40;;;6.60;99.90;;;6.68;99.45;99256.66;5049896;28;20710;-66
2021/12/01 07:52:14;;;;;;;0.47;0.47;;;6.50;99.90;;;6.61;99.46;99245.13;5049539;28;20632;-64
2021/12/01 07:54:41;;;;;;;0.70;0.70;;;6.50;99.90;;;6.65;99.40;99241.34;5050691;28;21044;-64
2021/12/01 07:57:08;;;;;;;0.40;0.40;;;6.50;99.90;;;6.66;99.66;99237.81;5049812;28;20656;-64
2021/12/01 07:59:36;;;;;;;1.10;1.00;;;6.50;99.90;;;6.63;100.00;99220.72;5049713;28;20642;-67
2021/12/01 08:02:03;;;;;;;0.88;0.88;;;6.50;99.90;;;6.68;100.00;99216.03;5050241;28;20296;-64
2021/12/01 08:04:31;;;;;;;0.50;0.50;;;6.50;99.90;;;6.64;100.00;99218.97;5050609;28;20236;-62
2021/12/01 08:06:59;;;;;;;0.70;0.70;;;6.50;99.90;;;6.60;100.00;99209.78;5043587;28;20751;-64
2021/12/01 08:09:26;;;;;;;0.70;0.70;;;6.50;99.90;;;6.60;100.00;99202.03;5049186;28;20205;-63
2021/12/01 08:11:55;;;;;;;1.52;0.57;;;6.50;99.90;;;6.61;100.00;99216.59;5049332;28;20653;-64
2021/12/01 08:14:23;;;;;;;0.98;0.98;;;6.50;99.90;;;6.60;100.00;99208.00;5047277;28;20283;-64
2021/12/01 08:16:51;;;;;;;0.30;0.30;;;6.50;99.90;;;6.65;100.00;99211.06;5050550;28;20221;-64
2021/12/01 08:19:18;;;;;;;0.60;0.60;;;6.50;99.90;;;6.65;100.00;99197.28;5048848;28;20229;-64
2021/12/01 08:21:50;;;;;;;0.75;0.75;;;6.60;99.90;;;6.71;100.00;99178.66;5048931;28;20205;-63
2021/12/01 08:24:19;;;;;;;0.80;0.70;;;6.60;99.90;;;6.74;100.00;99187.03;5050443;28;20233;-64
2021/12/01 08:26:48;;;;;;;1.20;1.10;;;6.60;99.90;;;6.66;100.00;99183.41;5047426;28;20198;-64
2021/12/01 08:29:16;;;;;;;0.90;0.90;;;6.60;99.90;;;6.70;100.00;99177.03;5046290;28;20632;-64
2021/12/01 08:31:44;;;;;;;0.68;0.68;;;6.60;99.90;;;6.72;100.00;99188.09;5050226;28;20233;-64
2021/12/01 08:34:11;;;;;;;0.40;0.40;;;6.60;99.90;;;6.74;100.00;99168.88;5048136;28;20630;-63
2021/12/01 08:36:39;;;;;;;0.77;0.77;;;6.60;99.90;;;6.69;100.00;99162.41;5043132;28;20648;-64
2021/12/01 08:39:06;;;;;;;0.43;0.43;;;6.60;99.90;;;6.81;100.00;99162.28;5047453;28;20632;-64
2021/12/01 08:41:33;;;;;;;0.57;0.57;;;6.70;99.90;;;6.77;100.00;99155.66;5051788;28;20197;-64
2021/12/01 08:44:00;;;;;;;0.75;0.75;;;6.70;99.90;;;6.85;100.00;99158.50;5054051;28;20702;-63
2021/12/01 08:46:27;;;;;;;0.77;0.77;;;6.70;99.90;;;6.77;100.00;99147.88;5053792;28;20205;-63
2021/12/01 08:48:56;;;;;;;14.65;0.90;;;6.70;99.90;;;6.80;100.00;99139.88;5054083;28;20638;-64
2021/12/01 08:51:23;;;;;;;1.07;0.77;;;6.70;99.90;;;6.83;100.00;99131.88;5052807;28;20239;-63
2021/12/01 08:53:50;;;;;;;6.13;0.80;;;6.70;99.90;;;6.86;100.00;99120.41;5052690;28;20702;-64
2021/12/01 08:56:17;;;;;;;0.82;0.70;;;6.70;99.90;;;6.73;100.00;99123.16;5052537;28;20730;-64
2021/12/01 08:58:44;;;;;;;0.60;0.60;;;6.70;99.90;;;6.80;100.00;99119.16;5054426;28;20217;-64
2021/12/01 09:01:11;;;;;;;0.50;0.50;;;6.70;99.90;;;6.86;100.00;99123.84;5051924;28;20722;-63
2021/12/01 09:03:39;;;;;;;0.50;0.50;;;6.80;99.90;;;6.92;100.00;99104.38;5052162;28;20205;-64
2021/12/01 09:06:06;;;;;;;0.83;0.47;;;6.80;99.90;;;6.94;100.00;99098.09;5049460;28;20635;-63
2021/12/01 09:08:34;;;;;;;0.50;0.50;;;6.80;99.90;;;6.98;100.00;99098.69;5053157;28;20742;-64
2021/12/01 09:11:03;;;;;;;0.28;0.28;;;6.90;99.90;;;7.06;100.00;99085.94;5051881;28;20231;-64
2021/12/01 09:13:32;;;;;;;1.40;0.40;;;6.90;99.90;;;7.01;100.00;99083.72;5052028;28;20225;-64
2021/12/01 09:16:00;;;;;;;0.43;0.43;;;6.90;99.90;;;7.03;100.00;99083.56;5048345;28;20624;-64
2021/12/01 09:18:29;;;;;;;0.50;0.50;;;6.90;99.90;;;7.05;100.00;99073.88;5050758;28;20315;-63
2021/12/01 09:20:58;;;;;;;0.50;0.50;;;6.90;99.90;;;7.03;100.00;99079.22;5052716;28;20202;-63
2021/12/01 09:23:25;;;;;;;0.50;0.50;;;6.90;99.90;;;7.11;100.00;99068.22;5044540;28;21085;-66
2021/12/01 09:25:53;;;;;;;0.67;0.67;;;7.00;99.90;;;7.10;100.00;99058.78;5047536;28;20302;-66
2021/12/01 09:28:23;;;;;;;0.80;0.80;;;7.00;99.90;;;7.18;100.00;99056.38;5034705;28;20751;-65
2021/12/01 09:30:55;;;;;;;0.60;0.60;;;7.10;99.90;;;7.27;100.00;99055.63;5043529;28;20655;-65
2021/12/01 09:33:23;;;;;;;0.75;0.73;;;7.10;99.90;;;7.25;100.00;99054.09;5050713;28;20649;-63
2021/12/01 09:35:51;;;;;;;0.50;0.50;;;7.10;99.90;;;7.30;100.00;99050.19;5050710;28;20606;-64
2021/12/01 09:38:19;;;;;;;0.43;0.43;;;7.10;99.90;;;7.33;100.00;99051.69;5053786;28;20635;-65
2021/12/01 09:40:51;;;;;;;0.40;0.40;;;7.20;99.90;;;7.35;100.00;99047.19;5051174;28;21247;-65
2021/12/01 09:43:25;;;;;;;0.30;0.30;;;7.20;99.90;;;7.35;100.00;99048.03;5051542;28;20665;-64
2021/12/01 09:45:58;;;;;;;1.33;0.50;;;7.20;99.90;;;7.43;100.00;99047.41;5050752;28;20731;-66
2021/12/01 09:48:27;;;;;;;0.70;0.70;;;7.30;99.90;;;7.47;100.00;99034.03;5051757;28;20716;-66
2021/12/01 09:51:15;;;;;;;2.13;0.73;;;7.30;99.90;;;7.48;99.03;99019.25;5052978;28;20642;-66
2021/12/01 09:53:44;;;;;;;1.13;0.77;;;7.40;99.90;;;7.62;99.31;99009.34;5049689;28;20674;-66
2021/12/01 09:56:11;;;;;;;0.30;0.30;;;7.50;99.90;;;7.68;97.68;99011.44;5050981;28;20633;-66
2021/12/01 09:58:39;;;;;;;0.40;0.40;;;7.60;99.90;;;7.71;98.91;99003.38;5049948;28;20750;-66
2021/12/01 10:01:09;;;;;;;0.80;0.63;;;7.50;99.90;;;7.71;97.98;98999.97;5050506;28;21087;-66
2021/12/01 10:03:37;;;;;;;0.60;0.60;;;7.60;99.90;;;7.79;97.54;98981.97;5047998;28;21202;-66
2021/12/01 10:06:14;;;;;;;0.70;0.70;;;7.70;99.90;;;7.83;97.66;98973.78;5046268;28;21124;-66
2021/12/01 10:08:49;;;;;;;0.40;0.40;;;7.80;99.90;;;7.95;97.32;98973.66;5049589;28;20665;-63
2021/12/01 10:11:28;;;;;;;0.63;0.63;;;7.80;99.90;;;7.99;97.11;98968.06;5043361;28;21016;-63
2021/12/01 10:14:05;;;;;;;0.30;0.30;;;7.90;99.90;;;7.99;97.31;98968.06;5043501;28;21253;-64
2021/12/01 10:16:39;;;;;;;1.80;1.10;;;7.90;99.90;;;8.14;95.79;98965.91;5045212;28;20638;-63
2021/12/01 10:19:16;;;;;;;1.80;0.40;;;8.00;99.90;;;8.11;95.96;98950.59;5031920;28;20628;-64
2021/12/01 10:21:50;;;;;;;0.77;0.50;;;8.00;99.90;;;8.16;96.02;98946.63;5046716;28;20723;-64
2021/12/01 10:24:30;;;;;;;0.40;0.40;;;8.00;99.90;;;8.18;96.16;98941.28;5052353;28;20652;-66
2021/12/01 10:27:02;;;;;;;0.40;0.40;;;8.00;99.90;;;8.07;96.09;98923.25;5050072;28;20654;-64
2021/12/01 10:29:34;;;;;;;0.40;0.40;;;8.00;99.90;;;8.09;96.63;98908.34;5053001;28;20651;-65
2021/12/01 10:32:16;;;;;;;3.00;0.57;;;8.00;99.90;;;8.14;97.49;98900.94;5052527;28;20690;-63
2021/12/01 10:34:53;;;;;;;0.67;0.67;;;8.00;99.90;;;8.13;96.70;98896.72;5050178;28;20863;-64
2021/12/01 10:37:30;;;;;;;0.70;0.70;;;8.00;99.90;;;8.12;96.93;98895.06;5039641;28;20651;-64
2021/12/01 10:40:30;;;;;;;0.50;0.50;;;8.00;99.90;;;8.22;96.52;98888.13;5049108;28;20631;-65
2021/12/01 10:43:12;;;;;;;0.40;0.40;;;8.00;99.90;;;8.14;96.90;98877.56;4999478;28;20627;-65